sensor_id;sensor_type;location;lat;lon;timestamp;pressure;altitude;pressure_sealevel;temperature
29423;BMP180;16399;51.686;8.684;2024-03-06T00:01:54;100046.00;;;6.70
29423;BMP180;16399;51.686;8.684;2024-03-06T00:04:57;100042.00;;;6.70
29423;BMP180;16399;51.686;8.684;2024-03-06T00:08:00;100053.00;;;6.70
29423;BMP180;16399;51.686;8.684;2024-03-06T00:11:04;100050.00;;;6.70
29423;BMP180;16399;51.686;8.684;2024-03-06T00:14:06;100048.00;;;6.70
29423;BMP180;16399;51.686;8.684;2024-03-06T00:17:08;100066.00;;;6.70
29423;BMP180;16399;51.686;8.684;2024-03-06T00:20:11;100059.00;;;6.70
29423;BMP180;16399;51.686;8.684;2024-03-06T00:23:15;100069.00;;;6.70
29423;BMP180;16399;51.686;8.684;2024-03-06T00:26:17;100079.00;;;6.70
29423;BMP180;16399;51.686;8.684;2024-03-06T00:29:19;100078.00;;;6.70
29423;BMP180;16399;51.686;8.684;2024-03-06T00:32:22;100075.00;;;6.70
29423;BMP180;16399;51.686;8.684;2024-03-06T00:35:24;100075.00;;;6.70
29423;BMP180;16399;51.686;8.684;2024-03-06T00:38:27;100080.00;;;6.70
29423;BMP180;16399;51.686;8.684;2024-03-06T00:41:29;100085.00;;;6.70
29423;BMP180;16399;51.686;8.684;2024-03-06T00:44:32;100090.00;;;6.70
29423;BMP180;16399;51.686;8.684;2024-03-06T00:47:34;100091.00;;;6.70
29423;BMP180;16399;51.686;8.684;2024-03-06T00:50:36;100087.00;;;6.70
29423;BMP180;16399;51.686;8.684;2024-03-06T00:53:38;100094.00;;;6.70
29423;BMP180;16399;51.686;8.684;2024-03-06T00:56:41;100096.00;;;6.70
29423;BMP180;16399;51.686;8.684;2024-03-06T00:59:43;100082.00;;;6.70
29423;BMP180;16399;51.686;8.684;2024-03-06T01:02:45;100093.00;;;6.70
29423;BMP180;16399;51.686;8.684;2024-03-06T01:05:48;100094.00;;;6.70
29423;BMP180;16399;51.686;8.684;2024-03-06T01:08:50;100094.00;;;6.70
29423;BMP180;16399;51.686;8.684;2024-03-06T01:11:53;100098.00;;;6.70
29423;BMP180;16399;51.686;8.684;2024-03-06T01:14:56;100095.00;;;6.70
29423;BMP180;16399;51.686;8.684;2024-03-06T01:17:59;100101.00;;;6.70
29423;BMP180;16399;51.686;8.684;2024-03-06T01:21:01;100099.00;;;6.70
29423;BMP180;16399;51.686;8.684;2024-03-06T01:24:04;100107.00;;;6.70
29423;BMP180;16399;51.686;8.684;2024-03-06T01:27:07;100103.00;;;6.70
29423;BMP180;16399;51.686;8.684;2024-03-06T01:30:10;100106.00;;;6.70
29423;BMP180;16399;51.686;8.684;2024-03-06T01:33:12;100107.00;;;6.70
29423;BMP180;16399;51.686;8.684;2024-03-06T01:36:14;100109.00;;;6.70
29423;BMP180;16399;51.686;8.684;2024-03-06T01:39:17;100114.00;;;6.70
29423;BMP180;16399;51.686;8.684;2024-03-06T01:42:19;100118.00;;;6.70
29423;BMP180;16399;51.686;8.684;2024-03-06T01:45:21;100118.00;;;6.60
29423;BMP180;16399;51.686;8.684;2024-03-06T01:48:26;100123.00;;;6.70
29423;BMP180;16399;51.686;8.684;2024-03-06T01:51:29;100106.00;;;6.70
29423;BMP180;16399;51.686;8.684;2024-03-06T01:54:31;100109.00;;;6.70
29423;BMP180;16399;51.686;8.684;2024-03-06T01:57:35;100113.00;;;6.70
29423;BMP180;16399;51.686;8.684;2024-03-06T02:00:38;100123.00;;;6.70
29423;BMP180;16399;51.686;8.684;2024-03-06T02:03:41;100132.00;;;6.70
29423;BMP180;16399;51.686;8.684;2024-03-06T02:06:43;100126.00;;;6.70
29423;BMP180;16399;51.686;8.684;2024-03-06T02:09:46;100132.00;;;6.70
29423;BMP180;16399;51.686;8.684;2024-03-06T02:12:50;100138.00;;;6.70
29423;BMP180;16399;51.686;8.684;2024-03-06T02:15:54;100138.00;;;6.70
29423;BMP180;16399;51.686;8.684;2024-03-06T02:18:57;100126.00;;;6.70
29423;BMP180;16399;51.686;8.684;2024-03-06T02:21:59;100133.00;;;6.70
29423;BMP180;16399;51.686;8.684;2024-03-06T02:25:01;100138.00;;;6.70
29423;BMP180;16399;51.686;8.684;2024-03-06T02:28:04;100140.00;;;6.70
29423;BMP180;16399;51.686;8.684;2024-03-06T02:31:07;100138.00;;;6.80
29423;BMP180;16399;51.686;8.684;2024-03-06T02:34:09;100143.00;;;6.80
29423;BMP180;16399;51.686;8.684;2024-03-06T02:37:12;100139.00;;;6.80
29423;BMP180;16399;51.686;8.684;2024-03-06T02:40:14;100144.00;;;6.80
29423;BMP180;16399;51.686;8.684;2024-03-06T02:43:16;100147.00;;;6.80
29423;BMP180;16399;51.686;8.684;2024-03-06T02:46:19;100148.00;;;6.80
29423;BMP180;16399;51.686;8.684;2024-03-06T02:49:21;100142.00;;;6.80
29423;BMP180;16399;51.686;8.684;2024-03-06T02:52:23;100139.00;;;6.90
29423;BMP180;16399;51.686;8.684;2024-03-06T02:55:26;100153.00;;;6.80
29423;BMP180;16399;51.686;8.684;2024-03-06T02:58:28;100148.00;;;6.90
29423;BMP180;16399;51.686;8.684;2024-03-06T03:01:32;100151.00;;;6.90
29423;BMP180;16399;51.686;8.684;2024-03-06T03:04:35;100151.00;;;6.90
29423;BMP180;16399;51.686;8.684;2024-03-06T03:07:37;100144.00;;;6.80
29423;BMP180;16399;51.686;8.684;2024-03-06T03:10:39;100147.00;;;6.80
29423;BMP180;16399;51.686;8.684;2024-03-06T03:13:42;100158.00;;;6.80
29423;BMP180;16399;51.686;8.684;2024-03-06T03:16:44;100157.00;;;6.80
29423;BMP180;16399;51.686;8.684;2024-03-06T03:19:46;100153.00;;;6.90
29423;BMP180;16399;51.686;8.684;2024-03-06T03:22:49;100164.00;;;6.90
29423;BMP180;16399;51.686;8.684;2024-03-06T03:25:51;100155.00;;;6.90
29423;BMP180;16399;51.686;8.684;2024-03-06T03:28:53;100160.00;;;6.90
29423;BMP180;16399;51.686;8.684;2024-03-06T03:31:57;100170.00;;;6.90
29423;BMP180;16399;51.686;8.684;2024-03-06T03:34:59;100166.00;;;6.90
29423;BMP180;16399;51.686;8.684;2024-03-06T03:38:01;100157.00;;;6.80
29423;BMP180;16399;51.686;8.684;2024-03-06T03:41:08;100180.00;;;6.80
29423;BMP180;16399;51.686;8.684;2024-03-06T03:44:13;100172.00;;;6.80
29423;BMP180;16399;51.686;8.684;2024-03-06T03:47:16;100164.00;;;6.80
29423;BMP180;16399;51.686;8.684;2024-03-06T03:50:18;100174.00;;;6.80
29423;BMP180;16399;51.686;8.684;2024-03-06T03:53:20;100168.00;;;6.80
29423;BMP180;16399;51.686;8.684;2024-03-06T03:56:23;100179.00;;;6.80
29423;BMP180;16399;51.686;8.684;2024-03-06T03:59:25;100179.00;;;6.80
29423;BMP180;16399;51.686;8.684;2024-03-06T04:02:27;100182.00;;;6.80
29423;BMP180;16399;51.686;8.684;2024-03-06T04:05:30;100171.00;;;6.70
29423;BMP180;16399;51.686;8.684;2024-03-06T04:08:32;100190.00;;;6.70
29423;BMP180;16399;51.686;8.684;2024-03-06T04:11:36;100188.00;;;6.70
29423;BMP180;16399;51.686;8.684;2024-03-06T04:14:39;100179.00;;;6.70
29423;BMP180;16399;51.686;8.684;2024-03-06T04:17:41;100182.00;;;6.70
29423;BMP180;16399;51.686;8.684;2024-03-06T04:20:44;100181.00;;;6.70
29423;BMP180;16399;51.686;8.684;2024-03-06T04:23:46;100190.00;;;6.70
29423;BMP180;16399;51.686;8.684;2024-03-06T04:26:49;100197.00;;;6.70
29423;BMP180;16399;51.686;8.684;2024-03-06T04:29:51;100170.00;;;6.60
29423;BMP180;16399;51.686;8.684;2024-03-06T04:32:53;100196.00;;;6.60
29423;BMP180;16399;51.686;8.684;2024-03-06T04:35:56;100197.00;;;6.60
29423;BMP180;16399;51.686;8.684;2024-03-06T04:38:58;100202.00;;;6.60
29423;BMP180;16399;51.686;8.684;2024-03-06T04:42:00;100210.00;;;6.50
29423;BMP180;16399;51.686;8.684;2024-03-06T04:45:04;100219.00;;;6.50
29423;BMP180;16399;51.686;8.684;2024-03-06T04:48:08;100213.00;;;6.50
29423;BMP180;16399;51.686;8.684;2024-03-06T04:51:10;100222.00;;;6.40
29423;BMP180;16399;51.686;8.684;2024-03-06T04:54:12;100229.00;;;6.40
29423;BMP180;16399;51.686;8.684;2024-03-06T04:57:14;100232.00;;;6.40
29423;BMP180;16399;51.686;8.684;2024-03-06T05:00:18;100236.00;;;6.40
29423;BMP180;16399;51.686;8.684;2024-03-06T05:03:20;100240.00;;;6.40
29423;BMP180;16399;51.686;8.684;2024-03-06T05:06:23;100231.00;;;6.40
29423;BMP180;16399;51.686;8.684;2024-03-06T05:09:25;100238.00;;;6.40
29423;BMP180;16399;51.686;8.684;2024-03-06T05:12:28;100232.00;;;6.30
29423;BMP180;16399;51.686;8.684;2024-03-06T05:15:30;100253.00;;;6.30
29423;BMP180;16399;51.686;8.684;2024-03-06T05:18:34;100255.00;;;6.30
29423;BMP180;16399;51.686;8.684;2024-03-06T05:21:37;100250.00;;;6.30
29423;BMP180;16399;51.686;8.684;2024-03-06T05:24:39;100260.00;;;6.30
29423;BMP180;16399;51.686;8.684;2024-03-06T05:27:41;100249.00;;;6.30
29423;BMP180;16399;51.686;8.684;2024-03-06T05:30:44;100267.00;;;6.30
29423;BMP180;16399;51.686;8.684;2024-03-06T05:33:49;100270.00;;;6.30
29423;BMP180;16399;51.686;8.684;2024-03-06T05:36:51;100265.00;;;6.30
29423;BMP180;16399;51.686;8.684;2024-03-06T05:39:54;100278.00;;;6.40
29423;BMP180;16399;51.686;8.684;2024-03-06T05:42:56;100278.00;;;6.30
29423;BMP180;16399;51.686;8.684;2024-03-06T05:45:58;100286.00;;;6.40
29423;BMP180;16399;51.686;8.684;2024-03-06T05:49:02;100278.00;;;6.40
29423;BMP180;16399;51.686;8.684;2024-03-06T05:52:05;100284.00;;;6.40
29423;BMP180;16399;51.686;8.684;2024-03-06T05:55:08;100285.00;;;6.50
29423;BMP180;16399;51.686;8.684;2024-03-06T05:58:10;100292.00;;;6.50
29423;BMP180;16399;51.686;8.684;2024-03-06T06:01:14;100294.00;;;6.50
29423;BMP180;16399;51.686;8.684;2024-03-06T06:04:17;100294.00;;;6.50
29423;BMP180;16399;51.686;8.684;2024-03-06T06:07:19;100288.00;;;6.60
29423;BMP180;16399;51.686;8.684;2024-03-06T06:10:21;100292.00;;;6.60
29423;BMP180;16399;51.686;8.684;2024-03-06T06:13:23;100290.00;;;6.60
29423;BMP180;16399;51.686;8.684;2024-03-06T06:16:26;100307.00;;;6.60
29423;BMP180;16399;51.686;8.684;2024-03-06T06:19:28;100318.00;;;6.60
29423;BMP180;16399;51.686;8.684;2024-03-06T06:22:30;100311.00;;;6.60
29423;BMP180;16399;51.686;8.684;2024-03-06T06:25:33;100316.00;;;6.60
29423;BMP180;16399;51.686;8.684;2024-03-06T06:28:35;100320.00;;;6.60
29423;BMP180;16399;51.686;8.684;2024-03-06T06:31:38;100323.00;;;6.60
29423;BMP180;16399;51.686;8.684;2024-03-06T06:34:40;100322.00;;;6.70
29423;BMP180;16399;51.686;8.684;2024-03-06T06:37:42;100335.00;;;6.70
29423;BMP180;16399;51.686;8.684;2024-03-06T06:40:45;100344.00;;;6.70
29423;BMP180;16399;51.686;8.684;2024-03-06T06:43:47;100332.00;;;6.70
29423;BMP180;16399;51.686;8.684;2024-03-06T06:46:51;100336.00;;;6.80
29423;BMP180;16399;51.686;8.684;2024-03-06T06:49:53;100335.00;;;6.80
29423;BMP180;16399;51.686;8.684;2024-03-06T06:52:56;100345.00;;;6.90
29423;BMP180;16399;51.686;8.684;2024-03-06T06:55:59;100349.00;;;6.90
29423;BMP180;16399;51.686;8.684;2024-03-06T06:59:02;100349.00;;;6.90
29423;BMP180;16399;51.686;8.684;2024-03-06T07:02:04;100357.00;;;7.00
29423;BMP180;16399;51.686;8.684;2024-03-06T07:05:08;100359.00;;;7.00
29423;BMP180;16399;51.686;8.684;2024-03-06T07:08:10;100360.00;;;7.00
29423;BMP180;16399;51.686;8.684;2024-03-06T07:11:13;100366.00;;;7.00
29423;BMP180;16399;51.686;8.684;2024-03-06T07:14:15;100371.00;;;7.10
29423;BMP180;16399;51.686;8.684;2024-03-06T07:17:17;100381.00;;;7.10
29423;BMP180;16399;51.686;8.684;2024-03-06T07:20:20;100380.00;;;7.10
29423;BMP180;16399;51.686;8.684;2024-03-06T07:23:22;100396.00;;;7.20
29423;BMP180;16399;51.686;8.684;2024-03-06T07:26:25;100390.00;;;7.20
29423;BMP180;16399;51.686;8.684;2024-03-06T07:29:27;100389.00;;;7.20
29423;BMP180;16399;51.686;8.684;2024-03-06T07:32:30;100394.00;;;7.30
29423;BMP180;16399;51.686;8.684;2024-03-06T07:35:32;100394.00;;;7.30
29423;BMP180;16399;51.686;8.684;2024-03-06T07:38:36;100410.00;;;7.30
29423;BMP180;16399;51.686;8.684;2024-03-06T07:41:38;100417.00;;;7.40
29423;BMP180;16399;51.686;8.684;2024-03-06T07:44:40;100412.00;;;7.40
29423;BMP180;16399;51.686;8.684;2024-03-06T07:47:43;100409.00;;;7.50
29423;BMP180;16399;51.686;8.684;2024-03-06T07:50:46;100427.00;;;7.50
29423;BMP180;16399;51.686;8.684;2024-03-06T07:53:48;100414.00;;;7.60
29423;BMP180;16399;51.686;8.684;2024-03-06T07:56:51;100423.00;;;7.70
29423;BMP180;16399;51.686;8.684;2024-03-06T07:59:55;100425.00;;;7.80
29423;BMP180;16399;51.686;8.684;2024-03-06T08:02:57;100429.00;;;7.80
29423;BMP180;16399;51.686;8.684;2024-03-06T08:06:00;100424.00;;;7.90
29423;BMP180;16399;51.686;8.684;2024-03-06T08:09:04;100436.00;;;8.00
29423;BMP180;16399;51.686;8.684;2024-03-06T08:12:09;100437.00;;;8.00
29423;BMP180;16399;51.686;8.684;2024-03-06T08:15:13;100435.00;;;8.10
29423;BMP180;16399;51.686;8.684;2024-03-06T08:18:16;100441.00;;;8.10
29423;BMP180;16399;51.686;8.684;2024-03-06T08:21:18;100447.00;;;8.20
29423;BMP180;16399;51.686;8.684;2024-03-06T08:24:21;100457.00;;;8.20
29423;BMP180;16399;51.686;8.684;2024-03-06T08:27:23;100456.00;;;8.30
29423;BMP180;16399;51.686;8.684;2024-03-06T08:30:25;100459.00;;;8.30
29423;BMP180;16399;51.686;8.684;2024-03-06T08:33:28;100466.00;;;8.30
29423;BMP180;16399;51.686;8.684;2024-03-06T08:36:30;100470.00;;;8.40
29423;BMP180;16399;51.686;8.684;2024-03-06T08:39:32;100477.00;;;8.40
29423;BMP180;16399;51.686;8.684;2024-03-06T08:42:34;100473.00;;;8.50
29423;BMP180;16399;51.686;8.684;2024-03-06T08:45:37;100480.00;;;8.50
29423;BMP180;16399;51.686;8.684;2024-03-06T08:48:39;100481.00;;;8.60
29423;BMP180;16399;51.686;8.684;2024-03-06T08:51:41;100474.00;;;8.70
29423;BMP180;16399;51.686;8.684;2024-03-06T08:54:44;100479.00;;;8.80
29423;BMP180;16399;51.686;8.684;2024-03-06T08:57:46;100482.00;;;8.80
29423;BMP180;16399;51.686;8.684;2024-03-06T09:00:48;100485.00;;;8.90
29423;BMP180;16399;51.686;8.684;2024-03-06T09:03:50;100491.00;;;9.00
29423;BMP180;16399;51.686;8.684;2024-03-06T09:06:53;100487.00;;;9.00
29423;BMP180;16399;51.686;8.684;2024-03-06T09:09:56;100488.00;;;9.00
29423;BMP180;16399;51.686;8.684;2024-03-06T09:12:58;100497.00;;;9.00
29423;BMP180;16399;51.686;8.684;2024-03-06T09:16:00;100490.00;;;9.00
29423;BMP180;16399;51.686;8.684;2024-03-06T09:19:03;100493.00;;;9.10
29423;BMP180;16399;51.686;8.684;2024-03-06T09:22:05;100503.00;;;9.10
29423;BMP180;16399;51.686;8.684;2024-03-06T09:25:08;100494.00;;;9.10
29423;BMP180;16399;51.686;8.684;2024-03-06T09:28:10;100497.00;;;9.30
29423;BMP180;16399;51.686;8.684;2024-03-06T09:31:13;100497.00;;;9.40
29423;BMP180;16399;51.686;8.684;2024-03-06T09:34:15;100494.00;;;9.50
29423;BMP180;16399;51.686;8.684;2024-03-06T09:37:18;100506.00;;;9.70
29423;BMP180;16399;51.686;8.684;2024-03-06T09:40:22;100498.00;;;9.70
29423;BMP180;16399;51.686;8.684;2024-03-06T09:43:25;100512.00;;;9.60
29423;BMP180;16399;51.686;8.684;2024-03-06T09:46:27;100509.00;;;9.60
29423;BMP180;16399;51.686;8.684;2024-03-06T09:49:30;100508.00;;;9.50
29423;BMP180;16399;51.686;8.684;2024-03-06T09:52:33;100515.00;;;9.60
29423;BMP180;16399;51.686;8.684;2024-03-06T09:55:36;100519.00;;;9.60
29423;BMP180;16399;51.686;8.684;2024-03-06T09:58:39;100515.00;;;9.70
29423;BMP180;16399;51.686;8.684;2024-03-06T10:01:49;100526.00;;;9.80
29423;BMP180;16399;51.686;8.684;2024-03-06T10:04:50;100519.00;;;9.90
29423;BMP180;16399;51.686;8.684;2024-03-06T10:07:52;100525.00;;;9.80
29423;BMP180;16399;51.686;8.684;2024-03-06T10:10:55;100527.00;;;9.90
29423;BMP180;16399;51.686;8.684;2024-03-06T10:13:58;100530.00;;;9.90
29423;BMP180;16399;51.686;8.684;2024-03-06T10:17:01;100519.00;;;10.00
29423;BMP180;16399;51.686;8.684;2024-03-06T10:20:23;100522.00;;;9.90
29423;BMP180;16399;51.686;8.684;2024-03-06T10:23:27;100516.00;;;10.00
29423;BMP180;16399;51.686;8.684;2024-03-06T10:26:32;100527.00;;;10.10
29423;BMP180;16399;51.686;8.684;2024-03-06T10:29:34;100519.00;;;10.20
29423;BMP180;16399;51.686;8.684;2024-03-06T10:32:37;100524.00;;;10.40
29423;BMP180;16399;51.686;8.684;2024-03-06T10:35:46;100526.00;;;10.60
29423;BMP180;16399;51.686;8.684;2024-03-06T10:38:54;100527.00;;;10.60
29423;BMP180;16399;51.686;8.684;2024-03-06T10:41:58;100534.00;;;10.70
29423;BMP180;16399;51.686;8.684;2024-03-06T10:45:01;100523.00;;;10.70
29423;BMP180;16399;51.686;8.684;2024-03-06T10:48:06;100524.00;;;10.80
29423;BMP180;16399;51.686;8.684;2024-03-06T10:51:10;100524.00;;;10.90
29423;BMP180;16399;51.686;8.684;2024-03-06T10:54:16;100540.00;;;11.00
29423;BMP180;16399;51.686;8.684;2024-03-06T10:57:20;100528.00;;;11.00
29423;BMP180;16399;51.686;8.684;2024-03-06T11:00:23;100535.00;;;11.10
29423;BMP180;16399;51.686;8.684;2024-03-06T11:03:27;100541.00;;;11.10
29423;BMP180;16399;51.686;8.684;2024-03-06T11:06:31;100545.00;;;11.10
29423;BMP180;16399;51.686;8.684;2024-03-06T11:09:36;100542.00;;;10.90
29423;BMP180;16399;51.686;8.684;2024-03-06T11:12:40;100546.00;;;11.10
29423;BMP180;16399;51.686;8.684;2024-03-06T11:15:42;100545.00;;;11.20
29423;BMP180;16399;51.686;8.684;2024-03-06T11:18:45;100549.00;;;11.40
29423;BMP180;16399;51.686;8.684;2024-03-06T11:21:48;100544.00;;;11.40
29423;BMP180;16399;51.686;8.684;2024-03-06T11:24:51;100547.00;;;11.40
29423;BMP180;16399;51.686;8.684;2024-03-06T11:28:05;100552.00;;;11.40
29423;BMP180;16399;51.686;8.684;2024-03-06T11:34:31;100555.00;;;11.20
29423;BMP180;16399;51.686;8.684;2024-03-06T11:37:36;100565.00;;;11.10
29423;BMP180;16399;51.686;8.684;2024-03-06T11:40:43;100564.00;;;11.10
29423;BMP180;16399;51.686;8.684;2024-03-06T11:43:48;100559.00;;;11.10
29423;BMP180;16399;51.686;8.684;2024-03-06T11:47:00;100557.00;;;11.00
29423;BMP180;16399;51.686;8.684;2024-03-06T11:50:03;100558.00;;;10.80
29423;BMP180;16399;51.686;8.684;2024-03-06T11:53:09;100565.00;;;10.90
29423;BMP180;16399;51.686;8.684;2024-03-06T11:56:12;100563.00;;;10.90
29423;BMP180;16399;51.686;8.684;2024-03-06T11:59:14;100566.00;;;10.90
29423;BMP180;16399;51.686;8.684;2024-03-06T12:02:17;100568.00;;;10.90
29423;BMP180;16399;51.686;8.684;2024-03-06T12:05:19;100571.00;;;10.90
29423;BMP180;16399;51.686;8.684;2024-03-06T12:08:21;100569.00;;;10.90
29423;BMP180;16399;51.686;8.684;2024-03-06T12:11:25;100573.00;;;10.90
29423;BMP180;16399;51.686;8.684;2024-03-06T12:14:29;100575.00;;;10.90
29423;BMP180;16399;51.686;8.684;2024-03-06T12:17:32;100577.00;;;11.00
29423;BMP180;16399;51.686;8.684;2024-03-06T12:20:34;100567.00;;;11.00
29423;BMP180;16399;51.686;8.684;2024-03-06T12:23:37;100563.00;;;11.00
29423;BMP180;16399;51.686;8.684;2024-03-06T12:26:39;100574.00;;;11.10
29423;BMP180;16399;51.686;8.684;2024-03-06T12:29:42;100573.00;;;11.10
29423;BMP180;16399;51.686;8.684;2024-03-06T12:32:58;100576.00;;;11.20
29423;BMP180;16399;51.686;8.684;2024-03-06T12:36:05;100575.00;;;11.30
29423;BMP180;16399;51.686;8.684;2024-03-06T12:39:08;100582.00;;;11.40
29423;BMP180;16399;51.686;8.684;2024-03-06T12:42:17;100567.00;;;11.40
29423;BMP180;16399;51.686;8.684;2024-03-06T12:45:20;100571.00;;;11.40
29423;BMP180;16399;51.686;8.684;2024-03-06T12:48:23;100569.00;;;11.40
29423;BMP180;16399;51.686;8.684;2024-03-06T12:51:26;100561.00;;;11.50
29423;BMP180;16399;51.686;8.684;2024-03-06T12:54:29;100572.00;;;11.30
29423;BMP180;16399;51.686;8.684;2024-03-06T12:57:34;100567.00;;;11.30
29423;BMP180;16399;51.686;8.684;2024-03-06T13:00:37;100565.00;;;11.30
29423;BMP180;16399;51.686;8.684;2024-03-06T13:03:39;100571.00;;;11.20
29423;BMP180;16399;51.686;8.684;2024-03-06T13:06:42;100563.00;;;11.30
29423;BMP180;16399;51.686;8.684;2024-03-06T13:09:44;100574.00;;;11.10
29423;BMP180;16399;51.686;8.684;2024-03-06T13:12:46;100567.00;;;11.10
29423;BMP180;16399;51.686;8.684;2024-03-06T13:15:49;100571.00;;;11.10
29423;BMP180;16399;51.686;8.684;2024-03-06T13:18:51;100573.00;;;11.00
29423;BMP180;16399;51.686;8.684;2024-03-06T13:21:55;100589.00;;;10.90
29423;BMP180;16399;51.686;8.684;2024-03-06T13:24:57;100583.00;;;10.90
29423;BMP180;16399;51.686;8.684;2024-03-06T13:28:00;100578.00;;;10.80
29423;BMP180;16399;51.686;8.684;2024-03-06T13:31:03;100595.00;;;10.70
29423;BMP180;16399;51.686;8.684;2024-03-06T13:34:07;100591.00;;;10.70
29423;BMP180;16399;51.686;8.684;2024-03-06T13:37:09;100591.00;;;10.70
29423;BMP180;16399;51.686;8.684;2024-03-06T13:40:11;100598.00;;;10.70
29423;BMP180;16399;51.686;8.684;2024-03-06T13:43:15;100586.00;;;10.70
29423;BMP180;16399;51.686;8.684;2024-03-06T13:46:18;100593.00;;;10.80
29423;BMP180;16399;51.686;8.684;2024-03-06T13:50:25;100598.00;;;10.90
29423;BMP180;16399;51.686;8.684;2024-03-06T13:52:38;100601.00;;;10.90
29423;BMP180;16399;51.686;8.684;2024-03-06T13:55:40;100599.00;;;10.90
29423;BMP180;16399;51.686;8.684;2024-03-06T13:58:42;100606.00;;;11.10
29423;BMP180;16399;51.686;8.684;2024-03-06T14:01:45;100595.00;;;11.00
29423;BMP180;16399;51.686;8.684;2024-03-06T14:04:47;100600.00;;;11.00
29423;BMP180;16399;51.686;8.684;2024-03-06T14:07:55;100596.00;;;10.80
29423;BMP180;16399;51.686;8.684;2024-03-06T14:10:53;100604.00;;;10.80
29423;BMP180;16399;51.686;8.684;2024-03-06T14:13:56;100602.00;;;10.80
29423;BMP180;16399;51.686;8.684;2024-03-06T14:16:58;100602.00;;;10.90
29423;BMP180;16399;51.686;8.684;2024-03-06T14:20:00;100603.00;;;10.90
29423;BMP180;16399;51.686;8.684;2024-03-06T14:23:03;100608.00;;;10.80
29423;BMP180;16399;51.686;8.684;2024-03-06T14:26:05;100616.00;;;10.80
29423;BMP180;16399;51.686;8.684;2024-03-06T14:29:08;100611.00;;;10.70
29423;BMP180;16399;51.686;8.684;2024-03-06T14:32:10;100616.00;;;10.60
29423;BMP180;16399;51.686;8.684;2024-03-06T14:35:13;100609.00;;;10.70
29423;BMP180;16399;51.686;8.684;2024-03-06T14:38:16;100606.00;;;10.50
29423;BMP180;16399;51.686;8.684;2024-03-06T14:41:19;100609.00;;;10.50
29423;BMP180;16399;51.686;8.684;2024-03-06T14:44:21;100613.00;;;10.50
29423;BMP180;16399;51.686;8.684;2024-03-06T14:47:24;100614.00;;;10.40
29423;BMP180;16399;51.686;8.684;2024-03-06T14:50:27;100618.00;;;10.50
29423;BMP180;16399;51.686;8.684;2024-03-06T14:53:29;100612.00;;;10.50
29423;BMP180;16399;51.686;8.684;2024-03-06T14:56:32;100613.00;;;10.30
29423;BMP180;16399;51.686;8.684;2024-03-06T14:59:34;100619.00;;;10.40
29423;BMP180;16399;51.686;8.684;2024-03-06T15:02:37;100618.00;;;10.30
29423;BMP180;16399;51.686;8.684;2024-03-06T15:05:39;100614.00;;;10.30
29423;BMP180;16399;51.686;8.684;2024-03-06T15:08:41;100625.00;;;10.20
29423;BMP180;16399;51.686;8.684;2024-03-06T15:11:45;100625.00;;;10.30
29423;BMP180;16399;51.686;8.684;2024-03-06T15:14:48;100620.00;;;10.30
29423;BMP180;16399;51.686;8.684;2024-03-06T15:17:50;100628.00;;;10.50
29423;BMP180;16399;51.686;8.684;2024-03-06T15:20:52;100631.00;;;10.50
29423;BMP180;16399;51.686;8.684;2024-03-06T15:23:55;100629.00;;;10.50
29423;BMP180;16399;51.686;8.684;2024-03-06T15:26:57;100627.00;;;10.60
29423;BMP180;16399;51.686;8.684;2024-03-06T15:29:59;100625.00;;;10.60
29423;BMP180;16399;51.686;8.684;2024-03-06T15:33:02;100629.00;;;10.60
29423;BMP180;16399;51.686;8.684;2024-03-06T15:36:04;100626.00;;;10.60
29423;BMP180;16399;51.686;8.684;2024-03-06T15:39:07;100630.00;;;10.50
29423;BMP180;16399;51.686;8.684;2024-03-06T15:42:09;100628.00;;;10.50
29423;BMP180;16399;51.686;8.684;2024-03-06T15:45:12;100637.00;;;10.50
29423;BMP180;16399;51.686;8.684;2024-03-06T15:48:17;100634.00;;;10.40
29423;BMP180;16399;51.686;8.684;2024-03-06T15:51:19;100633.00;;;10.30
29423;BMP180;16399;51.686;8.684;2024-03-06T15:54:22;100639.00;;;10.20
29423;BMP180;16399;51.686;8.684;2024-03-06T15:57:24;100647.00;;;10.10
29423;BMP180;16399;51.686;8.684;2024-03-06T16:00:26;100650.00;;;10.00
29423;BMP180;16399;51.686;8.684;2024-03-06T16:03:29;100643.00;;;10.00
29423;BMP180;16399;51.686;8.684;2024-03-06T16:06:31;100646.00;;;10.00
29423;BMP180;16399;51.686;8.684;2024-03-06T16:09:35;100657.00;;;10.00
29423;BMP180;16399;51.686;8.684;2024-03-06T16:12:38;100654.00;;;9.90
29423;BMP180;16399;51.686;8.684;2024-03-06T16:15:40;100647.00;;;9.90
29423;BMP180;16399;51.686;8.684;2024-03-06T16:18:42;100656.00;;;9.90
29423;BMP180;16399;51.686;8.684;2024-03-06T16:21:45;100654.00;;;9.80
29423;BMP180;16399;51.686;8.684;2024-03-06T16:24:48;100648.00;;;9.80
29423;BMP180;16399;51.686;8.684;2024-03-06T16:27:52;100655.00;;;9.70
29423;BMP180;16399;51.686;8.684;2024-03-06T16:30:54;100662.00;;;9.70
29423;BMP180;16399;51.686;8.684;2024-03-06T16:33:58;100655.00;;;9.60
29423;BMP180;16399;51.686;8.684;2024-03-06T16:37:01;100656.00;;;9.60
29423;BMP180;16399;51.686;8.684;2024-03-06T16:40:08;100672.00;;;9.50
29423;BMP180;16399;51.686;8.684;2024-03-06T16:43:15;100677.00;;;9.50
29423;BMP180;16399;51.686;8.684;2024-03-06T16:46:17;100675.00;;;9.40
29423;BMP180;16399;51.686;8.684;2024-03-06T16:49:19;100675.00;;;9.30
29423;BMP180;16399;51.686;8.684;2024-03-06T16:52:22;100691.00;;;9.30
29423;BMP180;16399;51.686;8.684;2024-03-06T16:55:25;100679.00;;;9.30
29423;BMP180;16399;51.686;8.684;2024-03-06T16:58:27;100681.00;;;9.30
29423;BMP180;16399;51.686;8.684;2024-03-06T17:01:29;100691.00;;;9.30
29423;BMP180;16399;51.686;8.684;2024-03-06T17:04:31;100702.00;;;9.30
29423;BMP180;16399;51.686;8.684;2024-03-06T17:07:34;100699.00;;;9.20
29423;BMP180;16399;51.686;8.684;2024-03-06T17:10:36;100701.00;;;9.20
29423;BMP180;16399;51.686;8.684;2024-03-06T17:13:39;100699.00;;;9.20
29423;BMP180;16399;51.686;8.684;2024-03-06T17:16:41;100709.00;;;9.10
29423;BMP180;16399;51.686;8.684;2024-03-06T17:19:43;100708.00;;;9.10
29423;BMP180;16399;51.686;8.684;2024-03-06T17:22:46;100717.00;;;9.10
29423;BMP180;16399;51.686;8.684;2024-03-06T17:25:49;100722.00;;;9.00
29423;BMP180;16399;51.686;8.684;2024-03-06T17:28:51;100722.00;;;9.00
29423;BMP180;16399;51.686;8.684;2024-03-06T17:31:54;100723.00;;;9.00